PIMOHWEATHER Station Historical Data
Daily Summary for November 11, 2020 Units:  Metric    English   Both
Daily Weekly Monthly Yearly
  High: Low: Average:
Temperature: 29.0 °C 26.0 °C 26.7 °C
Dew Point: 25.0 °C 23.0 °C 23.4 °C
Humidity: 88% 75% 83%
Wind Speed: 76km/h 4km/h 23.5km/h
Wind Gust: 101km/h - -
Wind- - NW
Pressure: 1013.2 hPa 997.8 hPa -
Precipitation: 33.60 mm    
 
 
Tabular Data for November 11, 2020
Time Temperature Dew Point Pressure Wind Wind Speed Wind Gust Humidity Rainfall Rate (Hourly) solar
00:04 26.0 °C 23.0 °C 1013.2 hPa North 8 km/h 12 km/h 81% 0.00 mm 0.00 W/m2
00:09 26.0 °C 23.0 °C 1013.2 hPa NNW 9 km/h 12 km/h 81% 0.00 mm 0.00 W/m2
00:14 26.0 °C 23.0 °C 1013.1 hPa NNW 12 km/h 12 km/h 82% 0.00 mm 0.00 W/m2
00:19 26.0 °C 23.0 °C 1013.1 hPa NNW 11 km/h 12 km/h 81% 0.00 mm 0.00 W/m2
00:24 26.0 °C 23.0 °C 1013.1 hPa North 12 km/h 16 km/h 82% 0.00 mm 0.00 W/m2
00:29 26.0 °C 23.0 °C 1013.0 hPa North 8 km/h 12 km/h 82% 0.00 mm 0.00 W/m2
00:34 26.0 °C 23.0 °C 1012.7 hPa NNW 9 km/h 12 km/h 82% 0.00 mm 0.00 W/m2
00:39 26.0 °C 23.0 °C 1012.7 hPa North 20 km/h 24 km/h 83% 0.00 mm 0.00 W/m2
00:44 26.0 °C 23.0 °C 1012.9 hPa North 10 km/h 12 km/h 83% 0.00 mm 0.00 W/m2
00:49 26.0 °C 23.0 °C 1012.8 hPa NNW 11 km/h 16 km/h 83% 0.00 mm 0.00 W/m2
00:54 26.0 °C 23.0 °C 1012.9 hPa North 12 km/h 16 km/h 83% 0.00 mm 0.00 W/m2
00:59 26.0 °C 23.0 °C 1012.9 hPa North 6 km/h 8 km/h 83% 0.00 mm 0.00 W/m2
01:04 26.0 °C 23.0 °C 1012.9 hPa North 12 km/h 12 km/h 83% 0.00 mm 0.00 W/m2
01:09 26.0 °C 23.0 °C 1012.9 hPa North 5 km/h 8 km/h 83% 0.00 mm 0.00 W/m2
01:14 26.0 °C 23.0 °C 1012.7 hPa North 10 km/h 12 km/h 84% 0.00 mm 0.00 W/m2
01:19 26.0 °C 23.0 °C 1012.8 hPa North 10 km/h 16 km/h 84% 0.00 mm 0.00 W/m2
01:24 26.0 °C 23.0 °C 1012.9 hPa North 10 km/h 12 km/h 84% 0.00 mm 0.00 W/m2
01:29 26.0 °C 23.0 °C 1012.9 hPa North 14 km/h 20 km/h 84% 0.00 mm 0.00 W/m2
01:34 26.0 °C 23.0 °C 1012.8 hPa North 10 km/h 16 km/h 84% 0.00 mm 0.00 W/m2
01:39 26.0 °C 23.0 °C 1012.7 hPa North 10 km/h 12 km/h 84% 0.00 mm 0.00 W/m2
01:44 26.0 °C 23.0 °C 1012.7 hPa North 13 km/h 16 km/h 84% 0.00 mm 0.00 W/m2
01:49 26.0 °C 23.0 °C 1012.5 hPa North 6 km/h 8 km/h 84% 0.00 mm 0.00 W/m2
01:54 26.0 °C 23.0 °C 1012.4 hPa North 6 km/h 8 km/h 85% 0.00 mm 0.00 W/m2
01:59 26.0 °C 24.0 °C 1012.3 hPa North 6 km/h 8 km/h 85% 0.00 mm 0.00 W/m2
02:04 26.0 °C 24.0 °C 1012.4 hPa North 15 km/h 16 km/h 85% 0.00 mm 0.00 W/m2
02:09 26.0 °C 23.0 °C 1012.2 hPa NNW 17 km/h 24 km/h 85% 0.00 mm 0.00 W/m2
02:14 26.0 °C 23.0 °C 1012.2 hPa North 10 km/h 16 km/h 85% 0.00 mm 0.00 W/m2
02:19 26.0 °C 23.0 °C 1012.1 hPa North 10 km/h 12 km/h 85% 0.00 mm 0.00 W/m2
02:24 26.0 °C 23.0 °C 1012.1 hPa NNW 8 km/h 8 km/h 85% 0.00 mm 0.00 W/m2
02:29 26.0 °C 23.0 °C 1012.0 hPa North 8 km/h 8 km/h 85% 0.00 mm 0.00 W/m2
02:34 26.0 °C 23.0 °C 1012.0 hPa NNW 6 km/h 8 km/h 85% 0.00 mm 0.00 W/m2
02:39 26.0 °C 23.0 °C 1011.9 hPa NNW 14 km/h 16 km/h 84% 0.00 mm 0.00 W/m2
02:44 26.0 °C 23.0 °C 1011.7 hPa NNW 14 km/h 20 km/h 84% 0.00 mm 0.00 W/m2
02:49 26.0 °C 23.0 °C 1011.9 hPa North 11 km/h 16 km/h 84% 0.00 mm 0.00 W/m2
02:54 26.0 °C 23.0 °C 1011.7 hPa North 5 km/h 8 km/h 84% 0.00 mm 0.00 W/m2
02:59 26.0 °C 23.0 °C 1011.7 hPa North 4 km/h 4 km/h 84% 0.00 mm 0.00 W/m2
03:04 26.0 °C 23.0 °C 1011.7 hPa North 10 km/h 12 km/h 84% 0.00 mm 0.00 W/m2
03:09 26.0 °C 23.0 °C 1011.8 hPa North 11 km/h 16 km/h 84% 0.00 mm 0.00 W/m2
03:14 26.0 °C 23.0 °C 1011.7 hPa NNW 6 km/h 8 km/h 84% 0.00 mm 0.00 W/m2
03:19 26.0 °C 23.0 °C 1011.6 hPa North 18 km/h 20 km/h 84% 0.00 mm 0.00 W/m2
03:24 26.0 °C 23.0 °C 1011.6 hPa North 15 km/h 20 km/h 84% 0.00 mm 0.00 W/m2
03:29 26.0 °C 23.0 °C 1011.7 hPa North 10 km/h 12 km/h 84% 0.00 mm 0.00 W/m2
03:34 26.0 °C 23.0 °C 1011.5 hPa North 9 km/h 12 km/h 84% 0.00 mm 0.00 W/m2
03:39 26.0 °C 23.0 °C 1011.6 hPa North 9 km/h 12 km/h 84% 0.00 mm 0.00 W/m2
03:44 26.0 °C 23.0 °C 1011.5 hPa NNW 8 km/h 12 km/h 84% 0.00 mm 0.00 W/m2
03:49 26.0 °C 23.0 °C 1011.4 hPa NNW 15 km/h 16 km/h 84% 0.00 mm 0.00 W/m2
03:54 26.0 °C 23.0 °C 1011.4 hPa North 9 km/h 12 km/h 84% 0.00 mm 0.00 W/m2
03:59 26.0 °C 23.0 °C 1011.3 hPa North 8 km/h 12 km/h 84% 0.00 mm 0.00 W/m2
04:04 26.0 °C 23.0 °C 1011.3 hPa North 8 km/h 12 km/h 84% 0.00 mm 0.00 W/m2
04:09 26.0 °C 23.0 °C 1011.3 hPa North 8 km/h 12 km/h 84% 0.00 mm 0.00 W/m2
04:14 26.0 °C 23.0 °C 1011.3 hPa NNW 8 km/h 12 km/h 85% 0.00 mm 0.00 W/m2
04:19 26.0 °C 23.0 °C 1011.1 hPa North 5 km/h 8 km/h 85% 0.00 mm 0.00 W/m2
04:24 26.0 °C 23.0 °C 1011.5 hPa North 7 km/h 8 km/h 85% 0.00 mm 0.00 W/m2
04:29 26.0 °C 23.0 °C 1011.3 hPa North 8 km/h 8 km/h 84% 0.00 mm 0.00 W/m2
04:34 26.0 °C 23.0 °C 1011.4 hPa North 8 km/h 8 km/h 84% 0.00 mm 0.00 W/m2
04:39 26.0 °C 23.0 °C 1011.4 hPa North 6 km/h 8 km/h 84% 0.00 mm 0.00 W/m2
04:44 26.0 °C 23.0 °C 1011.4 hPa North 8 km/h 12 km/h 84% 0.00 mm 0.00 W/m2
04:49 26.0 °C 23.0 °C 1011.6 hPa North 10 km/h 12 km/h 84% 0.00 mm 0.00 W/m2
04:54 26.0 °C 23.0 °C 1011.6 hPa North 14 km/h 20 km/h 83% 0.00 mm 0.00 W/m2
04:59 26.0 °C 23.0 °C 1011.5 hPa North 12 km/h 16 km/h 83% 0.00 mm 0.00 W/m2
05:04 26.0 °C 23.0 °C 1011.5 hPa North 11 km/h 12 km/h 84% 0.00 mm 0.00 W/m2
05:09 26.0 °C 23.0 °C 1011.4 hPa North 8 km/h 12 km/h 84% 0.00 mm 0.00 W/m2
05:14 26.0 °C 23.0 °C 1011.3 hPa NNW 13 km/h 16 km/h 84% 0.00 mm 0.00 W/m2
05:19 26.0 °C 23.0 °C 1011.2 hPa NNW 15 km/h 16 km/h 84% 0.00 mm 0.00 W/m2
05:24 26.0 °C 23.0 °C 1011.2 hPa NNW 11 km/h 16 km/h 84% 0.00 mm 0.00 W/m2
05:29 26.0 °C 23.0 °C 1011.2 hPa NNW 12 km/h 16 km/h 84% 0.00 mm 0.00 W/m2
05:34 26.0 °C 23.0 °C 1011.4 hPa NNW 9 km/h 12 km/h 85% 0.00 mm 0.00 W/m2
05:39 26.0 °C 23.0 °C 1011.3 hPa North 9 km/h 12 km/h 85% 0.00 mm 0.00 W/m2
05:44 26.0 °C 23.0 °C 1011.3 hPa North 5 km/h 8 km/h 85% 0.00 mm 0.00 W/m2
05:49 26.0 °C 23.0 °C 1011.3 hPa North 9 km/h 12 km/h 85% 0.00 mm 0.00 W/m2
05:54 26.0 °C 23.0 °C 1011.3 hPa NNW 10 km/h 12 km/h 85% 0.00 mm 0.00 W/m2
05:59 26.0 °C 23.0 °C 1011.0 hPa NNW 12 km/h 16 km/h 85% 0.00 mm 0.85 W/m2
06:04 26.0 °C 23.0 °C 1011.0 hPa NNW 13 km/h 16 km/h 85% 0.00 mm 2.08 W/m2
06:09 26.0 °C 23.0 °C 1011.0 hPa NNW 12 km/h 12 km/h 85% 0.00 mm 4.28 W/m2
06:14 26.0 °C 23.0 °C 1011.2 hPa NNW 12 km/h 12 km/h 85% 0.00 mm 5.63 W/m2
06:19 26.0 °C 23.0 °C 1011.2 hPa NNW 12 km/h 16 km/h 85% 0.00 mm 9.91 W/m2
06:24 26.0 °C 23.0 °C 1011.3 hPa North 5 km/h 8 km/h 85% 0.00 mm 14.31 W/m2
06:29 26.0 °C 23.0 °C 1011.4 hPa North 6 km/h 8 km/h 85% 0.00 mm 19.45 W/m2
06:34 26.0 °C 23.0 °C 1011.5 hPa North 12 km/h 16 km/h 85% 0.00 mm 25.56 W/m2
06:39 26.0 °C 23.0 °C 1011.9 hPa North 16 km/h 24 km/h 85% 0.00 mm 32.90 W/m2
06:44 26.0 °C 23.0 °C 1011.9 hPa North 9 km/h 12 km/h 85% 0.00 mm 41.59 W/m2
06:49 26.0 °C 23.0 °C 1011.8 hPa North 13 km/h 16 km/h 84% 0.00 mm 46.73 W/m2
06:54 26.0 °C 23.0 °C 1011.7 hPa North 11 km/h 16 km/h 84% 0.00 mm 50.65 W/m2
06:59 26.0 °C 23.0 °C 1012.0 hPa North 9 km/h 16 km/h 84% 0.00 mm 58.97 W/m2
07:04 26.0 °C 23.0 °C 1012.2 hPa North 8 km/h 12 km/h 84% 0.00 mm 71.93 W/m2
07:09 26.0 °C 23.0 °C 1012.3 hPa North 11 km/h 16 km/h 83% 0.00 mm 81.10 W/m2
07:14 26.0 °C 23.0 °C 1012.2 hPa North 13 km/h 16 km/h 83% 0.00 mm 84.04 W/m2
07:19 26.0 °C 23.0 °C 1012.4 hPa North 15 km/h 20 km/h 82% 0.00 mm 84.53 W/m2
07:24 26.0 °C 23.0 °C 1012.3 hPa North 18 km/h 20 km/h 82% 0.00 mm 84.04 W/m2
07:29 26.0 °C 23.0 °C 1012.3 hPa North 17 km/h 24 km/h 82% 0.00 mm 81.97 W/m2
07:34 26.0 °C 23.0 °C 1012.3 hPa North 19 km/h 24 km/h 82% 0.00 mm 85.39 W/m2
07:39 26.0 °C 23.0 °C 1012.6 hPa North 13 km/h 20 km/h 82% 0.00 mm 97.13 W/m2
07:44 26.0 °C 23.0 °C 1012.6 hPa North 15 km/h 20 km/h 82% 0.00 mm 102.76 W/m2
07:49 26.0 °C 23.0 °C 1012.4 hPa North 18 km/h 24 km/h 82% 0.00 mm 106.19 W/m2
07:54 26.0 °C 23.0 °C 1012.4 hPa North 18 km/h 20 km/h 82% 0.00 mm 116.22 W/m2
07:59 26.0 °C 23.0 °C 1012.7 hPa NNW 15 km/h 20 km/h 82% 0.00 mm 117.93 W/m2
08:04 27.0 °C 23.0 °C 1012.8 hPa North 15 km/h 20 km/h 82% 0.00 mm 120.13 W/m2
08:09 27.0 °C 23.0 °C 1012.7 hPa North 15 km/h 20 km/h 82% 0.00 mm 120.13 W/m2
08:14 27.0 °C 23.0 °C 1012.5 hPa NNW 21 km/h 28 km/h 81% 0.00 mm 127.10 W/m2
08:19 27.0 °C 23.0 °C 1012.4 hPa NNW 24 km/h 32 km/h 81% 0.00 mm 147.41 W/m2
08:24 27.0 °C 23.0 °C 1012.5 hPa North 18 km/h 28 km/h 81% 0.00 mm 163.44 W/m2
08:29 27.0 °C 23.0 °C 1012.5 hPa North 15 km/h 20 km/h 81% 0.00 mm 170.90 W/m2
08:34 27.0 °C 23.0 °C 1012.4 hPa North 15 km/h 16 km/h 80% 0.00 mm 167.85 W/m2
08:39 27.0 °C 23.0 °C 1012.3 hPa NNW 12 km/h 16 km/h 80% 0.00 mm 146.56 W/m2
08:44 27.0 °C 23.0 °C 1012.4 hPa NNW 20 km/h 24 km/h 80% 0.00 mm 157.44 W/m2
08:49 27.0 °C 23.0 °C 1012.3 hPa North 21 km/h 28 km/h 80% 0.00 mm 176.90 W/m2
08:54 27.0 °C 23.0 °C 1012.4 hPa NNW 15 km/h 20 km/h 79% 0.00 mm 212.49 W/m2
08:59 27.0 °C 23.0 °C 1012.4 hPa NNW 18 km/h 24 km/h 79% 0.00 mm 229.01 W/m2
09:04 27.0 °C 23.0 °C 1012.3 hPa NNW 23 km/h 28 km/h 79% 0.00 mm 260.69 W/m2
09:09 27.0 °C 24.0 °C 1012.3 hPa North 28 km/h 32 km/h 79% 0.00 mm 367.37 W/m2
09:14 28.0 °C 23.0 °C 1012.3 hPa NNW 24 km/h 28 km/h 78% 0.00 mm 358.69 W/m2
09:19 28.0 °C 24.0 °C 1012.2 hPa NNW 24 km/h 28 km/h 79% 0.00 mm 425.11 W/m2
09:24 28.0 °C 24.0 °C 1012.2 hPa NNW 24 km/h 28 km/h 78% 0.00 mm 528.74 W/m2
09:29 28.0 °C 24.0 °C 1012.2 hPa NNW 28 km/h 36 km/h 78% 0.00 mm 394.29 W/m2
09:34 28.0 °C 24.0 °C 1012.2 hPa NNW 25 km/h 28 km/h 78% 0.00 mm 622.45 W/m2
09:39 28.0 °C 24.0 °C 1012.3 hPa NNW 23 km/h 28 km/h 77% 0.00 mm 610.70 W/m2
09:44 28.0 °C 24.0 °C 1012.3 hPa NNW 23 km/h 28 km/h 76% 0.00 mm 661.47 W/m2
09:49 28.0 °C 24.0 °C 1012.3 hPa NNW 28 km/h 32 km/h 77% 0.00 mm 582.08 W/m2
09:54 28.0 °C 24.0 °C 1012.1 hPa NNW 27 km/h 32 km/h 77% 0.00 mm 544.76 W/m2
09:59 28.0 °C 24.0 °C 1012.0 hPa NNW 20 km/h 28 km/h 77% 0.00 mm 432.45 W/m2
10:04 28.0 °C 24.0 °C 1011.8 hPa NNW 20 km/h 24 km/h 77% 0.00 mm 709.18 W/m2
10:09 28.0 °C 24.0 °C 1011.6 hPa North 31 km/h 36 km/h 76% 0.00 mm 583.42 W/m2
10:14 29.0 °C 24.0 °C 1011.5 hPa North 20 km/h 24 km/h 76% 0.00 mm 596.87 W/m2
10:19 29.0 °C 24.0 °C 1011.6 hPa NNW 22 km/h 28 km/h 75% 0.00 mm 578.16 W/m2
10:24 29.0 °C 24.0 °C 1011.6 hPa NNW 18 km/h 24 km/h 76% 0.00 mm 346.95 W/m2
10:29 29.0 °C 24.0 °C 1011.4 hPa NNW 22 km/h 24 km/h 76% 0.00 mm 577.30 W/m2
10:34 29.0 °C 24.0 °C 1011.4 hPa NNW 24 km/h 28 km/h 77% 0.00 mm 519.19 W/m2
10:39 29.0 °C 24.0 °C 1011.5 hPa NNW 20 km/h 24 km/h 77% 0.00 mm 271.95 W/m2
10:44 29.0 °C 24.0 °C 1011.3 hPa NNW 15 km/h 20 km/h 77% 0.00 mm 253.24 W/m2
10:49 29.0 °C 24.0 °C 1011.5 hPa NNW 20 km/h 28 km/h 76% 0.00 mm 217.27 W/m2
10:54 29.0 °C 24.0 °C 1011.2 hPa NNW 15 km/h 16 km/h 77% 0.00 mm 190.84 W/m2
10:59 29.0 °C 24.0 °C 1011.3 hPa NNW 23 km/h 28 km/h 76% 0.00 mm 184.36 W/m2
11:04 29.0 °C 24.0 °C 1011.2 hPa NNW 26 km/h 32 km/h 77% 0.00 mm 150.47 W/m2
11:09 28.0 °C 24.0 °C 1011.1 hPa NNW 29 km/h 36 km/h 77% 0.00 mm 161.36 W/m2
11:14 28.0 °C 24.0 °C 1011.0 hPa North 26 km/h 28 km/h 77% 0.00 mm 162.58 W/m2
11:19 28.0 °C 24.0 °C 1010.7 hPa NNW 26 km/h 28 km/h 78% 0.00 mm 162.58 W/m2
11:24 28.0 °C 24.0 °C 1010.7 hPa North 10 km/h 16 km/h 77% 0.00 mm 180.81 W/m2
11:29 29.0 °C 24.0 °C 1010.4 hPa NNW 15 km/h 20 km/h 77% 0.00 mm 177.75 W/m2
11:34 29.0 °C 24.0 °C 1010.4 hPa NNW 21 km/h 24 km/h 77% 0.00 mm 135.67 W/m2
11:39 28.0 °C 24.0 °C 1010.5 hPa NNW 18 km/h 24 km/h 77% 0.00 mm 110.59 W/m2
11:44 29.0 °C 24.0 °C 1010.6 hPa North 22 km/h 28 km/h 77% 0.00 mm 134.44 W/m2
11:49 29.0 °C 24.0 °C 1010.3 hPa NNW 15 km/h 20 km/h 76% 0.00 mm 142.64 W/m2
11:54 29.0 °C 24.0 °C 1010.1 hPa NNW 15 km/h 20 km/h 76% 0.00 mm 115.73 W/m2
11:59 29.0 °C 24.0 °C 1010.0 hPa NNW 18 km/h 28 km/h 76% 0.00 mm 129.19 W/m2
12:04 29.0 °C 24.0 °C 1010.1 hPa NNW 18 km/h 20 km/h 76% 0.00 mm 139.58 W/m2
12:09 29.0 °C 24.0 °C 1010.0 hPa North 17 km/h 20 km/h 77% 0.00 mm 159.53 W/m2
12:14 29.0 °C 24.0 °C 1009.8 hPa North 16 km/h 20 km/h 77% 0.00 mm 160.87 W/m2
12:19 29.0 °C 24.0 °C 1009.8 hPa NNW 22 km/h 24 km/h 77% 0.00 mm 158.67 W/m2
12:24 29.0 °C 24.0 °C 1009.5 hPa NNW 18 km/h 24 km/h 77% 0.00 mm 129.19 W/m2
12:29 29.0 °C 25.0 °C 1009.7 hPa NNW 26 km/h 32 km/h 79% 0.00 mm 118.78 W/m2
12:34 29.0 °C 25.0 °C 1009.4 hPa North 26 km/h 32 km/h 80% 0.00 mm 145.21 W/m2
12:39 28.0 °C 25.0 °C 1009.3 hPa NNW 14 km/h 20 km/h 80% 0.00 mm 146.56 W/m2
12:44 28.0 °C 25.0 °C 1009.3 hPa North 20 km/h 28 km/h 81% 0.00 mm 139.22 W/m2
12:49 28.0 °C 25.0 °C 1009.3 hPa NNW 29 km/h 32 km/h 82% 0.00 mm 127.47 W/m2
12:54 28.0 °C 25.0 °C 1009.1 hPa North 25 km/h 32 km/h 83% 0.00 mm 116.58 W/m2
12:59 28.0 °C 25.0 °C 1009.1 hPa North 23 km/h 28 km/h 83% 0.00 mm 74.14 W/m2
13:04 28.0 °C 25.0 °C 1009.1 hPa North 30 km/h 40 km/h 83% 0.00 mm 149.98 W/m2
13:09 28.0 °C 24.0 °C 1008.9 hPa North 38 km/h 48 km/h 82% 0.00 mm 155.24 W/m2
13:14 28.0 °C 24.0 °C 1008.8 hPa NNW 28 km/h 36 km/h 79% 0.00 mm 154.39 W/m2
13:19 28.0 °C 24.0 °C 1008.9 hPa North 22 km/h 36 km/h 80% 1.80 mm 129.68 W/m2
13:24 27.0 °C 24.0 °C 1008.7 hPa NNW 22 km/h 24 km/h 81% 3.61 mm 83.19 W/m2
13:29 27.0 °C 24.0 °C 1008.5 hPa NNW 24 km/h 28 km/h 82% 3.61 mm 62.88 W/m2
13:34 27.0 °C 23.0 °C 1008.5 hPa NNW 20 km/h 24 km/h 83% 5.41 mm 87.96 W/m2
13:39 26.0 °C 24.0 °C 1008.4 hPa NNW 18 km/h 20 km/h 84% 5.41 mm 88.82 W/m2
13:44 26.0 °C 24.0 °C 1008.4 hPa North 14 km/h 20 km/h 85% 3.61 mm 74.14 W/m2
13:49 26.0 °C 24.0 °C 1008.3 hPa NNW 14 km/h 16 km/h 85% 1.80 mm 85.02 W/m2
13:54 26.0 °C 24.0 °C 1008.2 hPa NNW 15 km/h 20 km/h 85% 0.00 mm 92.36 W/m2
13:59 26.0 °C 24.0 °C 1008.1 hPa NNW 18 km/h 20 km/h 85% 0.00 mm 89.79 W/m2
14:04 26.0 °C 24.0 °C 1008.0 hPa NNW 25 km/h 28 km/h 85% 0.00 mm 71.07 W/m2
14:09 26.0 °C 24.0 °C 1007.9 hPa NNW 18 km/h 24 km/h 84% 0.00 mm 91.02 W/m2
14:14 26.0 °C 24.0 °C 1007.7 hPa North 14 km/h 20 km/h 84% 0.00 mm 88.82 W/m2
14:19 26.0 °C 24.0 °C 1007.6 hPa NNW 15 km/h 20 km/h 84% 0.00 mm 85.39 W/m2
14:24 27.0 °C 24.0 °C 1007.5 hPa NW 6 km/h 8 km/h 85% 0.00 mm 81.97 W/m2
14:29 26.0 °C 24.0 °C 1007.4 hPa NNW 15 km/h 16 km/h 85% 0.00 mm 57.25 W/m2
14:34 26.0 °C 24.0 °C 1007.3 hPa NNW 12 km/h 16 km/h 85% 0.00 mm 64.59 W/m2
14:39 27.0 °C 24.0 °C 1007.5 hPa NNW 13 km/h 16 km/h 85% 0.00 mm 67.16 W/m2
14:44 27.0 °C 24.0 °C 1007.2 hPa NNW 23 km/h 28 km/h 84% 0.00 mm 62.02 W/m2
14:49 27.0 °C 24.0 °C 1007.2 hPa NNW 15 km/h 20 km/h 84% 0.00 mm 58.11 W/m2
14:54 27.0 °C 24.0 °C 1007.2 hPa NNW 16 km/h 16 km/h 84% 0.00 mm 43.80 W/m2
14:59 27.0 °C 24.0 °C 1007.2 hPa NNW 18 km/h 20 km/h 85% 0.00 mm 35.97 W/m2
15:04 27.0 °C 24.0 °C 1007.1 hPa NNW 13 km/h 16 km/h 85% 1.80 mm 35.11 W/m2
15:09 27.0 °C 24.0 °C 1007.1 hPa NNW 17 km/h 20 km/h 86% 1.80 mm 29.48 W/m2
15:14 27.0 °C 25.0 °C 1007.1 hPa NNW 16 km/h 20 km/h 87% 5.41 mm 26.79 W/m2
15:19 27.0 °C 25.0 °C 1007.2 hPa NNW 20 km/h 24 km/h 88% 5.41 mm 16.88 W/m2
15:24 27.0 °C 25.0 °C 1007.1 hPa NNW 27 km/h 36 km/h 88% 5.41 mm 19.45 W/m2
15:29 27.0 °C 24.0 °C 1007.2 hPa NNW 27 km/h 40 km/h 88% 3.61 mm 18.60 W/m2
15:34 27.0 °C 24.0 °C 1007.3 hPa North 25 km/h 32 km/h 87% 3.61 mm 14.68 W/m2
15:39 27.0 °C 24.0 °C 1007.3 hPa NNW 19 km/h 28 km/h 87% 1.80 mm 20.31 W/m2
15:44 27.0 °C 24.0 °C 1007.1 hPa NNW 24 km/h 28 km/h 87% 0.00 mm 24.22 W/m2
15:49 27.0 °C 24.0 °C 1007.2 hPa NNW 19 km/h 24 km/h 87% 0.00 mm 24.22 W/m2
15:54 27.0 °C 24.0 °C 1007.4 hPa NNW 13 km/h 16 km/h 87% 0.00 mm 13.82 W/m2
15:59 27.0 °C 24.0 °C 1007.2 hPa NNW 17 km/h 20 km/h 87% 1.80 mm 12.97 W/m2
16:04 27.0 °C 24.0 °C 1007.3 hPa NNW 10 km/h 16 km/h 87% 3.61 mm 11.25 W/m2
16:09 27.0 °C 24.0 °C 1007.3 hPa NNW 15 km/h 20 km/h 88% 3.61 mm 9.54 W/m2
16:14 27.0 °C 24.0 °C 1007.3 hPa NNW 15 km/h 20 km/h 88% 5.41 mm 9.05 W/m2
16:19 27.0 °C 24.0 °C 1007.1 hPa NNW 15 km/h 20 km/h 88% 5.41 mm 9.05 W/m2
16:24 27.0 °C 24.0 °C 1007.0 hPa NNW 22 km/h 28 km/h 88% 5.41 mm 9.54 W/m2
16:29 27.0 °C 24.0 °C 1007.1 hPa NNW 33 km/h 40 km/h 88% 7.19 mm 7.34 W/m2
16:34 26.0 °C 24.0 °C 1007.1 hPa NNW 22 km/h 28 km/h 88% 7.19 mm 5.99 W/m2
16:39 26.0 °C 24.0 °C 1007.0 hPa NNW 25 km/h 32 km/h 88% 7.19 mm 5.14 W/m2
16:44 26.0 °C 24.0 °C 1006.9 hPa NNW 19 km/h 28 km/h 87% 7.19 mm 2.94 W/m2
16:49 26.0 °C 24.0 °C 1007.0 hPa NNW 22 km/h 28 km/h 87% 7.19 mm 2.94 W/m2
16:54 26.0 °C 24.0 °C 1007.0 hPa NNW 29 km/h 44 km/h 87% 5.41 mm 2.08 W/m2
16:59 26.0 °C 24.0 °C 1007.0 hPa NNW 25 km/h 28 km/h 87% 7.19 mm 1.22 W/m2
17:04 26.0 °C 24.0 °C 1006.8 hPa North 22 km/h 24 km/h 87% 7.19 mm 1.22 W/m2
17:09 26.0 °C 24.0 °C 1006.9 hPa North 23 km/h 36 km/h 87% 7.19 mm 0.00 W/m2
17:14 26.0 °C 24.0 °C 1006.8 hPa NNW 21 km/h 28 km/h 87% 5.41 mm 0.00 W/m2
17:19 26.0 °C 24.0 °C 1006.5 hPa NNW 23 km/h 32 km/h 87% 5.41 mm 0.00 W/m2
17:24 26.0 °C 23.0 °C 1006.4 hPa NNW 29 km/h 36 km/h 87% 5.41 mm 0.00 W/m2
17:29 26.0 °C 23.0 °C 1006.6 hPa North 14 km/h 20 km/h 87% 5.41 mm 0.00 W/m2
17:34 26.0 °C 23.0 °C 1006.6 hPa NNW 18 km/h 24 km/h 87% 5.41 mm 0.00 W/m2
17:39 26.0 °C 23.0 °C 1006.4 hPa North 15 km/h 20 km/h 87% 3.61 mm 0.00 W/m2
17:44 26.0 °C 23.0 °C 1006.4 hPa NNW 18 km/h 20 km/h 87% 1.80 mm 0.00 W/m2
17:49 26.0 °C 23.0 °C 1006.4 hPa NNW 20 km/h 24 km/h 87% 1.80 mm 0.00 W/m2
17:54 26.0 °C 23.0 °C 1006.4 hPa NNW 20 km/h 24 km/h 87% 3.61 mm 0.00 W/m2
17:59 26.0 °C 24.0 °C 1006.3 hPa NNW 19 km/h 24 km/h 87% 3.61 mm 0.00 W/m2
18:04 26.0 °C 24.0 °C 1006.3 hPa NNW 21 km/h 32 km/h 87% 3.61 mm 0.00 W/m2
18:09 26.0 °C 24.0 °C 1006.4 hPa NNW 30 km/h 44 km/h 87% 5.41 mm 0.00 W/m2
18:14 26.0 °C 24.0 °C 1005.8 hPa NNW 22 km/h 24 km/h 86% 5.41 mm 0.00 W/m2
18:19 26.0 °C 24.0 °C 1005.6 hPa North 27 km/h 40 km/h 86% 7.19 mm 0.00 W/m2
18:24 26.0 °C 24.0 °C 1005.4 hPa North 31 km/h 36 km/h 85% 12.60 mm 0.00 W/m2
18:29 26.0 °C 23.0 °C 1005.8 hPa NNW 37 km/h 48 km/h 84% 14.40 mm 0.00 W/m2
18:34 26.0 °C 23.0 °C 1006.1 hPa NNW 36 km/h 44 km/h 84% 14.40 mm 0.00 W/m2
18:39 26.0 °C 23.0 °C 1006.1 hPa NNW 38 km/h 56 km/h 85% 8.99 mm 0.00 W/m2
18:44 26.0 °C 23.0 °C 1005.9 hPa North 53 km/h 68 km/h 84% 7.19 mm 0.00 W/m2
18:49 26.0 °C 23.0 °C 1005.9 hPa North 47 km/h 61 km/h 84% 8.99 mm 0.00 W/m2
18:54 26.0 °C 23.0 °C 1005.6 hPa North 44 km/h 61 km/h 85% 8.99 mm 0.00 W/m2
18:59 26.0 °C 23.0 °C 1005.7 hPa North 41 km/h 56 km/h 84% 8.99 mm 0.00 W/m2
19:04 26.0 °C 23.0 °C 1005.4 hPa North 40 km/h 56 km/h 84% 7.19 mm 0.00 W/m2
19:09 26.0 °C 23.0 °C 1005.4 hPa NNW 48 km/h 56 km/h 84% 7.19 mm 0.00 W/m2
19:14 26.0 °C 23.0 °C 1005.4 hPa NNW 48 km/h 61 km/h 83% 7.19 mm 0.00 W/m2
19:19 26.0 °C 23.0 °C 1005.3 hPa NNW 37 km/h 44 km/h 84% 5.41 mm 0.00 W/m2
19:24 26.0 °C 23.0 °C 1005.3 hPa NNW 37 km/h 56 km/h 84% 5.41 mm 0.00 W/m2
19:29 26.0 °C 23.0 °C 1005.3 hPa North 36 km/h 48 km/h 83% 3.61 mm 0.00 W/m2
19:34 26.0 °C 23.0 °C 1005.4 hPa NNW 40 km/h 53 km/h 83% 3.61 mm 0.00 W/m2
19:39 26.0 °C 23.0 °C 1005.1 hPa NNW 39 km/h 56 km/h 83% 7.19 mm 0.00 W/m2
19:44 26.0 °C 23.0 °C 1005.1 hPa NNW 42 km/h 53 km/h 83% 7.19 mm 0.00 W/m2
19:49 26.0 °C 23.0 °C 1005.0 hPa NNW 48 km/h 68 km/h 84% 7.19 mm 0.00 W/m2
19:54 26.0 °C 23.0 °C 1005.0 hPa NNW 33 km/h 44 km/h 84% 7.19 mm 0.00 W/m2
19:59 26.0 °C 23.0 °C 1004.9 hPa NNW 48 km/h 73 km/h 84% 5.41 mm 0.00 W/m2
20:04 26.0 °C 23.0 °C 1004.8 hPa North 37 km/h 53 km/h 84% 3.61 mm 0.00 W/m2
20:09 26.0 °C 23.0 °C 1005.0 hPa North 34 km/h 44 km/h 85% 3.61 mm 0.00 W/m2
20:14 26.0 °C 23.0 °C 1004.6 hPa North 38 km/h 53 km/h 85% 3.61 mm 0.00 W/m2
20:19 26.0 °C 23.0 °C 1004.7 hPa North 36 km/h 53 km/h 84% 3.61 mm 0.00 W/m2
20:24 26.0 °C 23.0 °C 1004.7 hPa NE 49 km/h 61 km/h 85% 5.41 mm 0.00 W/m2
20:29 26.0 °C 23.0 °C 1004.7 hPa North 34 km/h 53 km/h 85% 5.41 mm 0.00 W/m2
20:34 26.0 °C 23.0 °C 1004.4 hPa North 26 km/h 40 km/h 85% 3.61 mm 0.00 W/m2
20:39 26.0 °C 24.0 °C 1004.4 hPa North 49 km/h 64 km/h 85% 3.61 mm 0.00 W/m2
20:44 26.0 °C 24.0 °C 1004.1 hPa NNW 34 km/h 73 km/h 85% 1.80 mm 0.00 W/m2
20:49 26.0 °C 24.0 °C 1004.0 hPa North 44 km/h 68 km/h 84% 1.80 mm 0.00 W/m2
20:54 27.0 °C 24.0 °C 1004.0 hPa North 64 km/h 89 km/h 83% 0.00 mm 0.00 W/m2
20:59 27.0 °C 24.0 °C 1004.1 hPa NNW 56 km/h 81 km/h 82% 0.00 mm 0.00 W/m2
21:04 27.0 °C 24.0 °C 1004.2 hPa NNW 69 km/h 89 km/h 84% 1.80 mm 0.00 W/m2
21:09 27.0 °C 24.0 °C 1004.2 hPa NNW 76 km/h 101 km/h 84% 1.80 mm 0.00 W/m2
21:14 27.0 °C 24.0 °C 1004.2 hPa North 53 km/h 64 km/h 83% 1.80 mm 0.00 W/m2
21:19 27.0 °C 24.0 °C 1004.2 hPa NNW 44 km/h 64 km/h 82% 0.00 mm 0.00 W/m2
21:24 27.0 °C 24.0 °C 1004.2 hPa North 50 km/h 73 km/h 82% 1.80 mm 0.00 W/m2
21:29 27.0 °C 23.0 °C 1004.2 hPa NNW 53 km/h 64 km/h 82% 5.41 mm 0.00 W/m2
21:34 26.0 °C 23.0 °C 1004.0 hPa NNW 50 km/h 68 km/h 83% 5.41 mm 0.00 W/m2
21:39 26.0 °C 23.0 °C 1004.1 hPa NNW 51 km/h 77 km/h 83% 7.19 mm 0.00 W/m2
21:44 26.0 °C 23.0 °C 1003.8 hPa NNW 56 km/h 73 km/h 82% 5.41 mm 0.00 W/m2
21:49 27.0 °C 23.0 °C 1003.9 hPa NNW 67 km/h 89 km/h 79% 3.61 mm 0.00 W/m2
21:54 27.0 °C 23.0 °C 1003.9 hPa NNW 59 km/h 68 km/h 79% 0.00 mm 0.00 W/m2
21:59 26.0 °C 23.0 °C 1003.8 hPa NNW 54 km/h 68 km/h 81% 1.80 mm 0.00 W/m2
22:04 26.0 °C 23.0 °C 1003.8 hPa NNW 51 km/h 64 km/h 82% 1.80 mm 0.00 W/m2
22:09 26.0 °C 23.0 °C 1003.3 hPa NNW 67 km/h 85 km/h 80% 1.80 mm 0.00 W/m2
22:14 26.0 °C 23.0 °C 1003.2 hPa North 64 km/h 85 km/h 83% 1.80 mm 0.00 W/m2
22:19 26.0 °C 23.0 °C 1002.9 hPa North 65 km/h 77 km/h 83% 5.41 mm 0.00 W/m2
22:24 26.0 °C 23.0 °C 1002.4 hPa NNW 55 km/h 68 km/h 83% 7.19 mm 0.00 W/m2
22:29 26.0 °C 23.0 °C 1002.1 hPa NNW 65 km/h 89 km/h 83% 7.19 mm 0.00 W/m2
22:34 26.0 °C 23.0 °C 1001.5 hPa NNW 58 km/h 68 km/h 83% 7.19 mm 0.00 W/m2
22:39 26.0 °C 23.0 °C 1001.5 hPa NNW 55 km/h 68 km/h 83% 5.41 mm 0.00 W/m2
22:44 26.0 °C 23.0 °C 1001.3 hPa NNW 58 km/h 73 km/h 83% 5.41 mm 0.00 W/m2
22:49 26.0 °C 23.0 °C 1001.0 hPa NNW 44 km/h 68 km/h 82% 3.61 mm 0.00 W/m2
22:54 27.0 °C 23.0 °C 1000.8 hPa North 56 km/h 77 km/h 81% 1.80 mm 0.00 W/m2
22:59 27.0 °C 23.0 °C 1000.7 hPa North 64 km/h 81 km/h 80% 0.00 mm 0.00 W/m2
23:04 27.0 °C 23.0 °C 1000.3 hPa North 67 km/h 101 km/h 80% 0.00 mm 0.00 W/m2
23:09 27.0 °C 23.0 °C 999.9 hPa North 41 km/h 68 km/h 79% 0.00 mm 0.00 W/m2
23:14 27.0 °C 23.0 °C 999.8 hPa NNE 44 km/h 68 km/h 79% 0.00 mm 0.00 W/m2
23:19 27.0 °C 23.0 °C 999.5 hPa North 56 km/h 77 km/h 79% 0.00 mm 0.00 W/m2
23:24 27.0 °C 23.0 °C 999.2 hPa NE 40 km/h 56 km/h 78% 0.00 mm 0.00 W/m2
23:29 27.0 °C 23.0 °C 999.0 hPa NNW 38 km/h 89 km/h 78% 0.00 mm 0.00 W/m2
23:34 27.0 °C 23.0 °C 998.6 hPa NNW 30 km/h 48 km/h 78% 0.00 mm 0.00 W/m2
23:39 27.0 °C 23.0 °C 998.3 hPa NNW 44 km/h 61 km/h 79% 1.80 mm 0.00 W/m2
23:44 27.0 °C 23.0 °C 997.9 hPa NW 41 km/h 61 km/h 79% 3.61 mm 0.00 W/m2
23:49 27.0 °C 23.0 °C 998.0 hPa North 41 km/h 61 km/h 79% 3.61 mm 0.00 W/m2
23:54 27.0 °C 23.0 °C 997.8 hPa SW 32 km/h 53 km/h 80% 1.80 mm 0.00 W/m2
23:59 27.0 °C 23.0 °C 997.8 hPa WSW 22 km/h 32 km/h 81% 3.61 mm 0.00 W/m2
PIMOHWEATHER Philippines
Compliments of Weather Underground - 2 mb